createdAt,value
2022-11-18T00:01:29.392Z,96202.00
2022-11-18T00:03:57.514Z,96190.00
2022-11-18T00:06:27.948Z,96191.00
2022-11-18T00:08:56.720Z,96186.00
2022-11-18T00:11:45.343Z,96184.00
2022-11-18T00:14:23.591Z,96168.00
2022-11-18T00:16:55.209Z,96175.00
2022-11-18T00:19:26.727Z,96163.00
2022-11-18T00:21:55.518Z,96163.00
2022-11-18T00:24:23.679Z,96170.00
2022-11-18T00:26:53.334Z,96154.00
2022-11-18T00:29:21.897Z,96170.00
2022-11-18T00:31:50.396Z,96165.00
2022-11-18T00:34:22.618Z,96170.00
2022-11-18T00:36:50.485Z,96147.00
2022-11-18T00:39:21.521Z,96171.00
2022-11-18T00:42:08.135Z,96172.00
2022-11-18T00:44:37.674Z,96170.00
2022-11-18T00:47:06.610Z,96168.00
2022-11-18T00:49:34.594Z,96171.00
2022-11-18T00:52:02.486Z,96171.00
2022-11-18T00:54:30.762Z,96173.00
2022-11-18T00:56:58.747Z,96173.00
2022-11-18T00:59:26.602Z,96171.00
2022-11-18T01:01:55.826Z,96177.00
2022-11-18T01:04:23.954Z,96171.00
2022-11-18T01:06:51.991Z,96172.00
2022-11-18T01:09:20.101Z,96169.00
2022-11-18T01:12:05.632Z,96168.00
2022-11-18T01:14:33.970Z,96174.00
2022-11-18T01:17:03.183Z,96148.00
2022-11-18T01:19:31.261Z,96167.00
2022-11-18T01:22:03.019Z,96171.00
2022-11-18T01:24:31.432Z,96169.00
2022-11-18T01:26:59.475Z,96167.00
2022-11-18T01:29:27.239Z,96170.00
2022-11-18T01:32:22.825Z,96171.00
2022-11-18T01:34:46.083Z,96186.00
2022-11-18T01:37:13.899Z,96186.00
2022-11-18T01:39:41.689Z,96191.00
2022-11-18T01:42:16.134Z,96201.00
2022-11-18T01:45:18.970Z,96203.00
2022-11-18T01:47:53.116Z,96199.00
2022-11-18T01:50:25.066Z,96202.00
2022-11-18T01:52:57.261Z,96194.00
2022-11-18T01:55:32.628Z,96203.00
2022-11-18T01:58:12.379Z,96201.00
2022-11-18T02:00:41.461Z,96188.00
2022-11-18T02:03:09.714Z,96198.00
2022-11-18T02:05:41.560Z,96199.00
2022-11-18T02:08:10.289Z,96191.00
2022-11-18T02:10:38.042Z,96191.00
2022-11-18T02:13:07.678Z,96189.00
2022-11-18T02:15:49.757Z,96186.00
2022-11-18T02:18:34.500Z,96185.00
2022-11-18T02:21:28.668Z,96190.00
2022-11-18T02:24:39.714Z,96192.00
2022-11-18T02:27:48.616Z,96188.00
2022-11-18T02:30:20.052Z,96184.00
2022-11-18T02:32:55.562Z,96191.00
2022-11-18T02:35:31.069Z,96194.00
2022-11-18T02:38:03.703Z,96191.00
2022-11-18T02:40:36.975Z,96190.00
2022-11-18T02:43:11.028Z,96193.00
2022-11-18T02:45:45.155Z,96190.00
2022-11-18T02:48:15.467Z,96184.00
2022-11-18T02:50:46.943Z,96187.00
2022-11-18T02:53:20.884Z,96186.00
2022-11-18T02:55:50.877Z,96187.00
2022-11-18T02:58:22.327Z,96172.00
2022-11-18T03:00:56.993Z,96182.00
2022-11-18T03:03:29.461Z,96176.00
2022-11-18T03:06:12.379Z,96161.00
2022-11-18T03:08:50.404Z,96176.00
2022-11-18T03:11:23.431Z,96190.00
2022-11-18T03:14:09.138Z,96189.00
2022-11-18T03:16:47.091Z,96190.00
2022-11-18T03:19:23.331Z,96193.00
2022-11-18T03:22:03.685Z,96195.00
2022-11-18T03:24:36.178Z,96195.00
2022-11-18T03:27:13.878Z,96202.00
2022-11-18T03:29:49.688Z,96198.00
2022-11-18T03:32:25.579Z,96202.00
2022-11-18T03:35:01.262Z,96200.00
2022-11-18T03:37:34.369Z,96207.00
2022-11-18T03:40:12.813Z,96208.00
2022-11-18T03:42:45.592Z,96185.00
2022-11-18T03:45:20.694Z,96209.00
2022-11-18T03:47:59.132Z,96215.00
2022-11-18T03:50:33.099Z,96207.00
2022-11-18T03:53:03.482Z,96204.00
2022-11-18T03:55:38.024Z,96201.00
2022-11-18T03:58:13.543Z,96219.00
2022-11-18T04:00:46.353Z,96219.00
2022-11-18T04:03:15.853Z,96228.00
2022-11-18T04:05:44.966Z,96234.00
2022-11-18T04:08:21.053Z,96232.00
2022-11-18T04:10:58.937Z,96235.00
2022-11-18T04:13:31.231Z,96235.00
2022-11-18T04:15:59.161Z,96240.00
2022-11-18T04:18:28.771Z,96235.00
2022-11-18T04:20:56.610Z,96241.00
2022-11-18T04:23:24.405Z,96240.00
2022-11-18T04:25:52.201Z,96241.00
2022-11-18T04:28:20.047Z,96243.00
2022-11-18T04:30:47.841Z,96247.00
2022-11-18T04:33:15.776Z,96244.00
2022-11-18T04:35:47.621Z,96248.00
2022-11-18T04:38:19.203Z,96250.00
2022-11-18T04:40:49.629Z,96248.00
2022-11-18T04:43:17.475Z,96247.00
2022-11-18T04:45:45.335Z,96253.00
2022-11-18T04:48:13.193Z,96250.00
2022-11-18T04:50:41.085Z,96233.00
2022-11-18T04:53:10.211Z,96244.00
2022-11-18T04:55:38.512Z,96223.00
2022-11-18T04:58:06.269Z,96246.00
2022-11-18T05:00:34.130Z,96235.00
2022-11-18T05:03:01.905Z,96249.00
2022-11-18T05:05:29.712Z,96251.00
2022-11-18T05:07:57.534Z,96245.00
2022-11-18T05:10:26.788Z,96246.00
2022-11-18T05:12:53.784Z,96240.00
2022-11-18T05:15:24.569Z,96252.00
2022-11-18T05:17:52.484Z,96248.00
2022-11-18T05:20:20.547Z,96246.00
2022-11-18T05:22:48.403Z,96241.00
2022-11-18T05:25:16.651Z,96255.00
2022-11-18T05:27:45.844Z,96255.00
2022-11-18T05:30:15.245Z,96256.00
2022-11-18T05:32:43.079Z,96256.00
2022-11-18T05:35:10.874Z,96261.00
2022-11-18T05:37:38.677Z,96254.00
2022-11-18T05:40:08.547Z,96259.00
2022-11-18T05:42:53.832Z,96259.00
2022-11-18T05:45:22.928Z,96270.00
2022-11-18T05:48:04.531Z,96266.00
2022-11-18T05:50:34.868Z,96267.00
2022-11-18T05:53:03.572Z,96277.00
2022-11-18T05:55:39.543Z,96268.00
2022-11-18T05:58:07.418Z,96275.00
2022-11-18T06:00:37.745Z,96283.00
2022-11-18T06:03:13.872Z,96279.00
2022-11-18T06:05:41.998Z,96284.00
2022-11-18T06:08:11.429Z,96286.00
2022-11-18T06:10:42.590Z,96286.00
2022-11-18T06:13:19.004Z,96287.00
2022-11-18T06:15:48.723Z,96291.00
2022-11-18T06:18:24.379Z,96287.00
2022-11-18T06:20:55.852Z,96288.00
2022-11-18T06:23:24.170Z,96294.00
2022-11-18T06:25:52.186Z,96304.00
2022-11-18T06:28:21.298Z,96289.00
2022-11-18T06:30:50.541Z,96302.00
2022-11-18T06:33:18.352Z,96308.00
2022-11-18T06:35:46.426Z,96310.00
2022-11-18T06:38:14.259Z,96311.00
2022-11-18T06:40:44.739Z,96314.00
2022-11-18T06:43:31.405Z,96324.00
2022-11-18T06:46:19.321Z,96330.00
2022-11-18T06:48:47.424Z,96328.00
2022-11-18T06:51:15.452Z,96327.00
2022-11-18T06:53:43.474Z,96324.00
2022-11-18T06:56:14.277Z,96336.00
2022-11-18T06:58:42.282Z,96331.00
2022-11-18T07:01:13.549Z,96340.00
2022-11-18T07:03:41.824Z,96346.00
2022-11-18T07:06:11.552Z,96355.00
2022-11-18T07:08:41.510Z,96350.00
2022-11-18T07:11:13.539Z,96340.00
2022-11-18T07:13:43.786Z,96357.00
2022-11-18T07:16:16.440Z,96351.00
2022-11-18T07:18:45.836Z,96360.00
2022-11-18T07:21:16.192Z,96366.00
2022-11-18T07:23:44.876Z,96369.00
2022-11-18T07:26:13.512Z,96376.00
2022-11-18T07:28:41.660Z,96379.00
2022-11-18T07:31:12.094Z,96377.00
2022-11-18T07:33:43.476Z,96384.00
2022-11-18T07:36:13.821Z,96386.00
2022-11-18T07:38:42.630Z,96385.00
2022-11-18T07:41:12.597Z,96384.00
2022-11-18T07:43:41.341Z,96390.00
2022-11-18T07:46:16.161Z,96390.00
2022-11-18T07:48:48.623Z,96388.00
2022-11-18T07:51:19.775Z,96391.00
2022-11-18T07:53:48.333Z,96394.00
2022-11-18T07:56:17.079Z,96398.00
2022-11-18T07:58:45.854Z,96408.00
2022-11-18T08:01:16.813Z,96406.00
2022-11-18T08:03:47.242Z,96392.00
2022-11-18T08:06:17.670Z,96404.00
2022-11-18T08:08:46.076Z,96404.00
2022-11-18T08:11:21.661Z,96407.00
2022-11-18T08:13:50.649Z,96415.00
2022-11-18T08:16:21.456Z,96401.00
2022-11-18T08:18:51.331Z,96417.00
2022-11-18T08:21:21.871Z,96402.00
2022-11-18T08:23:52.266Z,96414.00
2022-11-18T08:26:20.843Z,96406.00
2022-11-18T08:28:49.530Z,96417.00
2022-11-18T08:31:20.662Z,96421.00
2022-11-18T08:33:48.509Z,96412.00
2022-11-18T08:36:21.857Z,96426.00
2022-11-18T08:38:50.342Z,96430.00
2022-11-18T08:41:26.429Z,96430.00
2022-11-18T08:43:54.275Z,96429.00
2022-11-18T08:46:23.084Z,96414.00
2022-11-18T08:48:51.090Z,96426.00
2022-11-18T08:51:20.581Z,96429.00
2022-11-18T08:53:48.749Z,96441.00
2022-11-18T08:56:20.632Z,96444.00
2022-11-18T08:58:48.808Z,96445.00
2022-11-18T09:01:17.156Z,96440.00
2022-11-18T09:03:45.726Z,96410.00
2022-11-18T09:06:16.966Z,96454.00
2022-11-18T09:08:46.939Z,96423.00
2022-11-18T09:11:18.554Z,96463.00
2022-11-18T09:14:32.628Z,96462.00
2022-11-18T09:16:36.426Z,96457.00
2022-11-18T09:19:24.860Z,96446.00
2022-11-18T09:21:53.365Z,96446.00
2022-11-18T09:24:22.601Z,96454.00
2022-11-18T09:26:50.884Z,96462.00
2022-11-18T09:29:19.044Z,96463.00
2022-11-18T09:31:47.251Z,96465.00
2022-11-18T09:34:15.406Z,96462.00
2022-11-18T09:36:43.636Z,96471.00
2022-11-18T09:39:11.546Z,96473.00
2022-11-18T09:41:47.895Z,96485.00
2022-11-18T09:44:46.264Z,96487.00
2022-11-18T09:47:28.210Z,96478.00
2022-11-18T09:50:14.845Z,96487.00
2022-11-18T09:53:05.298Z,96492.00
2022-11-18T09:55:36.668Z,96493.00
2022-11-18T09:58:07.396Z,96491.00
2022-11-18T10:00:35.781Z,96489.00
2022-11-18T10:03:06.487Z,96492.00
2022-11-18T10:05:48.212Z,96488.00
2022-11-18T10:08:28.306Z,96496.00
2022-11-18T10:11:04.944Z,96500.00
2022-11-18T10:13:52.019Z,96493.00
2022-11-18T10:16:33.503Z,96518.00
2022-11-18T10:19:19.525Z,96507.00
2022-11-18T10:22:01.107Z,96498.00
2022-11-18T10:24:36.785Z,96506.00
2022-11-18T10:27:12.286Z,96502.00
2022-11-18T10:29:41.996Z,96501.00
2022-11-18T10:32:23.513Z,96500.00
2022-11-18T10:34:54.012Z,96507.00
2022-11-18T10:37:45.756Z,96506.00
2022-11-18T10:40:26.483Z,96517.00
2022-11-18T10:42:54.300Z,96516.00
2022-11-18T10:45:29.360Z,96515.00
2022-11-18T10:48:10.628Z,96516.00
2022-11-18T10:50:41.380Z,96514.00
2022-11-18T10:53:32.736Z,96518.00
2022-11-18T10:56:04.155Z,96523.00
2022-11-18T10:58:35.354Z,96518.00
2022-11-18T11:01:15.273Z,96517.00
2022-11-18T11:03:45.274Z,96510.00
2022-11-18T11:06:38.434Z,96522.00
2022-11-18T11:09:11.366Z,96527.00
2022-11-18T11:11:43.494Z,96526.00
2022-11-18T11:14:24.660Z,96524.00
2022-11-18T11:17:02.760Z,96530.00
2022-11-18T11:19:41.821Z,96529.00
2022-11-18T11:22:12.991Z,96529.00
2022-11-18T11:24:41.844Z,96533.00
2022-11-18T11:30:22.984Z,96530.00
2022-11-18T11:33:27.894Z,96533.00
2022-11-18T11:36:10.465Z,96529.00
2022-11-18T11:39:01.311Z,96533.00
2022-11-18T11:41:44.971Z,96532.00
2022-11-18T11:44:45.798Z,96547.00
2022-11-18T11:47:48.014Z,96534.00
2022-11-18T11:50:28.814Z,96531.00
2022-11-18T11:53:18.569Z,96534.00
2022-11-18T11:56:05.410Z,96532.00
2022-11-18T11:59:08.531Z,96537.00
2022-11-18T12:01:50.649Z,96536.00
2022-11-18T12:04:35.768Z,96543.00
2022-11-18T12:07:12.814Z,96535.00
2022-11-18T12:10:09.103Z,96538.00
2022-11-18T12:12:47.964Z,96542.00
2022-11-18T12:15:40.013Z,96545.00
2022-11-18T12:18:18.462Z,96547.00
2022-11-18T12:20:48.652Z,96538.00
2022-11-18T12:23:21.597Z,96546.00
2022-11-18T12:26:05.843Z,96547.00
2022-11-18T12:28:38.132Z,96552.00
2022-11-18T12:31:34.249Z,96547.00
2022-11-18T12:34:07.069Z,96547.00
2022-11-18T12:36:38.530Z,96550.00
2022-11-18T12:40:00.926Z,96551.00
2022-11-18T12:43:00.405Z,96556.00
2022-11-18T12:45:59.945Z,96558.00
2022-11-18T12:48:39.000Z,96560.00
2022-11-18T12:51:42.422Z,96557.00
2022-11-18T12:54:34.675Z,96561.00
2022-11-18T12:57:16.430Z,96572.00
2022-11-18T12:59:44.444Z,96564.00
2022-11-18T13:02:24.085Z,96560.00
2022-11-18T13:05:20.123Z,96573.00
2022-11-18T13:08:11.309Z,96574.00
2022-11-18T13:10:52.995Z,96565.00
2022-11-18T13:13:32.839Z,96572.00
2022-11-18T13:16:35.563Z,96575.00
2022-11-18T13:19:05.687Z,96561.00
2022-11-18T13:21:51.313Z,96571.00
2022-11-18T13:24:21.599Z,96575.00
2022-11-18T13:26:58.631Z,96578.00
2022-11-18T13:29:48.479Z,96561.00
2022-11-18T13:32:24.918Z,96580.00
2022-11-18T13:34:55.081Z,96575.00
2022-11-18T13:37:25.536Z,96573.00
2022-11-18T13:39:53.921Z,96573.00
2022-11-18T13:42:24.821Z,96581.00
2022-11-18T13:44:55.440Z,96588.00
2022-11-18T13:47:30.322Z,96585.00
2022-11-18T13:50:15.093Z,96582.00
2022-11-18T13:52:47.435Z,96591.00
2022-11-18T13:55:21.483Z,96589.00
2022-11-18T13:57:53.724Z,96576.00
2022-11-18T14:00:27.278Z,96584.00
2022-11-18T14:03:00.419Z,96586.00
2022-11-18T14:05:29.401Z,96587.00
2022-11-18T14:08:03.137Z,96580.00
2022-11-18T14:10:38.212Z,96591.00
2022-11-18T14:13:23.383Z,96573.00
2022-11-18T14:15:54.407Z,96594.00
2022-11-18T14:18:32.290Z,96590.00
2022-11-18T14:21:02.310Z,96599.00
2022-11-18T14:23:34.083Z,96596.00
2022-11-18T14:26:05.087Z,96600.00
2022-11-18T14:28:36.565Z,96600.00
2022-11-18T14:31:22.521Z,96602.00
2022-11-18T14:34:07.111Z,96610.00
2022-11-18T14:36:34.872Z,96611.00
2022-11-18T14:41:50.475Z,96617.00
2022-11-18T14:44:19.944Z,96616.00
2022-11-18T14:46:53.432Z,96622.00
2022-11-18T14:49:23.963Z,96626.00
2022-11-18T14:51:53.549Z,96625.00
2022-11-18T14:54:26.709Z,96625.00
2022-11-18T14:56:59.267Z,96622.00
2022-11-18T14:59:27.005Z,96629.00
2022-11-18T15:01:58.515Z,96623.00
2022-11-18T15:04:26.473Z,96635.00
2022-11-18T15:06:54.633Z,96631.00
2022-11-18T15:09:22.812Z,96635.00
2022-11-18T15:11:56.616Z,96637.00
2022-11-18T15:14:24.350Z,96640.00
2022-11-18T15:16:52.336Z,96636.00
2022-11-18T15:19:21.362Z,96640.00
2022-11-18T15:21:49.080Z,96645.00
2022-11-18T15:24:17.086Z,96639.00
2022-11-18T15:26:47.869Z,96651.00
2022-11-18T15:29:19.030Z,96659.00
2022-11-18T15:31:46.993Z,96664.00
2022-11-18T15:34:15.598Z,96658.00
2022-11-18T15:36:45.127Z,96663.00
2022-11-18T15:39:13.636Z,96663.00
2022-11-18T15:41:43.732Z,96669.00
2022-11-18T15:44:12.918Z,96668.00
2022-11-18T15:46:41.051Z,96668.00
2022-11-18T15:49:15.397Z,96674.00
2022-11-18T15:51:44.644Z,96675.00
2022-11-18T15:54:12.454Z,96672.00
2022-11-18T15:56:41.565Z,96673.00
2022-11-18T15:59:12.302Z,96676.00
2022-11-18T16:01:45.473Z,96676.00
2022-11-18T16:04:17.155Z,96673.00
2022-11-18T16:06:47.117Z,96679.00
2022-11-18T16:09:16.496Z,96676.00
2022-11-18T16:12:02.285Z,96680.00
2022-11-18T16:14:30.103Z,96681.00
2022-11-18T16:16:58.161Z,96688.00
2022-11-18T16:19:31.283Z,96683.00
2022-11-18T16:22:00.451Z,96692.00
2022-11-18T16:24:30.633Z,96688.00
2022-11-18T16:26:58.724Z,96692.00
2022-11-18T16:29:26.671Z,96691.00
2022-11-18T16:31:54.547Z,96697.00
2022-11-18T16:34:25.158Z,96702.00
2022-11-18T16:36:55.336Z,96703.00
2022-11-18T16:39:27.250Z,96708.00
2022-11-18T16:42:02.255Z,96706.00
2022-11-18T16:44:34.827Z,96703.00
2022-11-18T16:47:03.263Z,96705.00
2022-11-18T16:49:32.370Z,96709.00
2022-11-18T16:52:00.135Z,96705.00
2022-11-18T16:54:32.246Z,96711.00
2022-11-18T16:57:00.798Z,96718.00
2022-11-18T16:59:30.523Z,96720.00
2022-11-18T17:02:00.911Z,96720.00
2022-11-18T17:04:30.478Z,96727.00
2022-11-18T17:07:00.411Z,96728.00
2022-11-18T17:09:29.700Z,96722.00
2022-11-18T17:11:59.223Z,96726.00
2022-11-18T17:14:27.289Z,96724.00
2022-11-18T17:16:55.026Z,96723.00
2022-11-18T17:19:25.639Z,96723.00
2022-11-18T17:21:53.922Z,96723.00
2022-11-18T17:24:24.358Z,96729.00
2022-11-18T17:26:54.533Z,96729.00
2022-11-18T17:29:22.424Z,96721.00
2022-11-18T17:31:50.617Z,96731.00
2022-11-18T17:34:18.936Z,96732.00
2022-11-18T17:36:46.829Z,96739.00
2022-11-18T17:39:15.908Z,96744.00
2022-11-18T17:42:01.619Z,96743.00
2022-11-18T17:44:30.820Z,96751.00
2022-11-18T17:46:58.688Z,96753.00
2022-11-18T17:49:26.458Z,96753.00
2022-11-18T17:51:54.334Z,96753.00
2022-11-18T17:54:23.029Z,96749.00
2022-11-18T17:56:52.870Z,96757.00
2022-11-18T17:59:20.876Z,96759.00
2022-11-18T18:01:57.266Z,96761.00
2022-11-18T18:04:26.539Z,96758.00
2022-11-18T18:06:54.966Z,96768.00
2022-11-18T18:09:30.145Z,96777.00
2022-11-18T18:11:58.920Z,96780.00
2022-11-18T18:14:25.828Z,96770.00
2022-11-18T18:16:55.339Z,96778.00
2022-11-18T18:19:24.903Z,96773.00
2022-11-18T18:21:53.328Z,96777.00
2022-11-18T18:24:21.789Z,96776.00
2022-11-18T18:26:50.012Z,96778.00
2022-11-18T18:29:17.718Z,96776.00
2022-11-18T18:31:45.495Z,96777.00
2022-11-18T18:34:14.656Z,96773.00
2022-11-18T18:36:42.405Z,96775.00
2022-11-18T18:39:11.075Z,96780.00
2022-11-18T18:41:38.919Z,96794.00
2022-11-18T18:44:06.855Z,96796.00
2022-11-18T18:46:33.716Z,96779.00
2022-11-18T18:49:06.245Z,96786.00
2022-11-18T18:51:39.573Z,96792.00
2022-11-18T18:54:08.763Z,96801.00
2022-11-18T18:56:36.636Z,96797.00
2022-11-18T18:59:04.530Z,96803.00
2022-11-18T19:01:33.424Z,96800.00
2022-11-18T19:04:03.853Z,96808.00
2022-11-18T19:06:58.190Z,96812.00
2022-11-18T19:09:23.699Z,96817.00
2022-11-18T19:12:09.758Z,96815.00
2022-11-18T19:14:37.630Z,96816.00
2022-11-18T19:17:10.604Z,96811.00
2022-11-18T19:19:58.510Z,96820.00
2022-11-18T19:22:31.303Z,96827.00
2022-11-18T19:24:59.668Z,96825.00
2022-11-18T19:27:27.784Z,96830.00
2022-11-18T19:29:55.714Z,96835.00
2022-11-18T19:32:23.639Z,96835.00
2022-11-18T19:34:51.553Z,96846.00
2022-11-18T19:37:19.340Z,96844.00
2022-11-18T19:39:48.444Z,96841.00
2022-11-18T19:42:16.234Z,96841.00
2022-11-18T19:44:43.965Z,96837.00
2022-11-18T19:47:11.749Z,96851.00
2022-11-18T19:49:39.579Z,96846.00
2022-11-18T19:52:07.354Z,96854.00
2022-11-18T19:54:35.181Z,96852.00
2022-11-18T19:57:04.615Z,96853.00
2022-11-18T19:59:32.450Z,96846.00
2022-11-18T20:02:00.182Z,96851.00
2022-11-18T20:04:28.179Z,96853.00
2022-11-18T20:06:56.760Z,96855.00
2022-11-18T20:09:25.338Z,96856.00
2022-11-18T20:11:53.627Z,96857.00
2022-11-18T20:14:22.876Z,96862.00
2022-11-18T20:16:51.673Z,96853.00
2022-11-18T20:19:19.641Z,96869.00
2022-11-18T20:21:49.382Z,96869.00
2022-11-18T20:24:19.990Z,96872.00
2022-11-18T20:26:48.613Z,96869.00
2022-11-18T20:29:16.892Z,96878.00
2022-11-18T20:31:46.372Z,96873.00
2022-11-18T20:34:15.168Z,96876.00
2022-11-18T20:36:43.763Z,96877.00
2022-11-18T20:39:17.657Z,96869.00
2022-11-18T20:42:10.463Z,96877.00
2022-11-18T20:44:38.250Z,96868.00
2022-11-18T20:47:07.512Z,96867.00
2022-11-18T20:49:35.250Z,96869.00
2022-11-18T20:52:02.993Z,96876.00
2022-11-18T20:54:30.778Z,96877.00
2022-11-18T20:56:58.504Z,96876.00
2022-11-18T20:59:26.228Z,96877.00
2022-11-18T21:01:53.998Z,96885.00
2022-11-18T21:04:23.470Z,96886.00
2022-11-18T21:06:54.528Z,96886.00
2022-11-18T21:09:22.609Z,96890.00
2022-11-18T21:11:50.313Z,96903.00
2022-11-18T21:14:22.894Z,96899.00
2022-11-18T21:16:52.593Z,96908.00
2022-11-18T21:19:20.923Z,96914.00
2022-11-18T21:21:52.279Z,96920.00
2022-11-18T21:24:22.780Z,96930.00
2022-11-18T21:26:54.362Z,96931.00
2022-11-18T21:29:24.404Z,96934.00
2022-11-18T21:31:53.797Z,96939.00
2022-11-18T21:34:22.999Z,96947.00
2022-11-18T21:36:54.833Z,96951.00
2022-11-18T21:39:23.830Z,96949.00
2022-11-18T21:41:55.629Z,96951.00
2022-11-18T21:44:24.374Z,96955.00
2022-11-18T21:46:52.137Z,96952.00
2022-11-18T21:49:20.038Z,96962.00
2022-11-18T21:51:47.991Z,96958.00
2022-11-18T21:54:18.301Z,96957.00
2022-11-18T21:56:46.356Z,96957.00
2022-11-18T21:59:14.085Z,96958.00
2022-11-18T22:01:41.909Z,96956.00
2022-11-18T22:04:29.628Z,96956.00
2022-11-18T22:06:57.391Z,96965.00
2022-11-18T22:09:29.176Z,96967.00
2022-11-18T22:12:00.883Z,96970.00
2022-11-18T22:14:28.669Z,96973.00
2022-11-18T22:16:56.428Z,96979.00
2022-11-18T22:19:24.516Z,96979.00
2022-11-18T22:21:52.411Z,96975.00
2022-11-18T22:24:20.309Z,96975.00
2022-11-18T22:26:49.395Z,96981.00
2022-11-18T22:29:17.430Z,96982.00
2022-11-18T22:31:45.908Z,96986.00
2022-11-18T22:34:13.718Z,96991.00
2022-11-18T22:36:41.483Z,96988.00
2022-11-18T22:39:09.305Z,96974.00
2022-11-18T22:41:54.485Z,96980.00
2022-11-18T22:44:23.569Z,96987.00
2022-11-18T22:46:53.494Z,96982.00
2022-11-18T22:49:21.769Z,96988.00
2022-11-18T22:51:49.805Z,97005.00
2022-11-18T22:57:05.679Z,97022.00
2022-11-18T22:59:34.778Z,97010.00
2022-11-18T23:02:02.690Z,97010.00
2022-11-18T23:04:30.505Z,97006.00
2022-11-18T23:06:58.359Z,97008.00
2022-11-18T23:09:26.395Z,97018.00
2022-11-18T23:12:11.501Z,97027.00
2022-11-18T23:14:40.654Z,97026.00
2022-11-18T23:17:08.544Z,97033.00
2022-11-18T23:19:36.925Z,97024.00
2022-11-18T23:22:04.692Z,97024.00
2022-11-18T23:24:32.525Z,97031.00
2022-11-18T23:27:00.276Z,97028.00
2022-11-18T23:29:29.004Z,97031.00
2022-11-18T23:31:58.289Z,97034.00
2022-11-18T23:34:26.022Z,97028.00
2022-11-18T23:36:53.883Z,97027.00
2022-11-18T23:39:22.017Z,97032.00
2022-11-18T23:41:49.914Z,97029.00
2022-11-18T23:44:17.625Z,97025.00
2022-11-18T23:46:45.366Z,97020.00
2022-11-18T23:49:14.673Z,97025.00
2022-11-18T23:51:42.444Z,97026.00
2022-11-18T23:54:10.240Z,97030.00
2022-11-18T23:56:38.612Z,97035.00
2022-11-18T23:59:06.672Z,97037.00
